createdAt,value
2017-12-15T00:02:05.006Z,3.10
2017-12-15T00:04:32.460Z,3.27
2017-12-15T00:06:59.958Z,3.10
2017-12-15T00:09:27.426Z,3.63
2017-12-15T00:11:54.890Z,3.27
2017-12-15T00:14:22.349Z,2.80
2017-12-15T00:16:50.701Z,3.50
2017-12-15T00:19:18.158Z,2.40
2017-12-15T00:21:45.706Z,4.43
2017-12-15T00:24:13.146Z,2.87
2017-12-15T00:26:40.616Z,3.17
2017-12-15T00:29:08.067Z,3.00
2017-12-15T00:31:35.527Z,4.07
2017-12-15T00:34:02.965Z,3.20
2017-12-15T00:36:30.529Z,2.97
2017-12-15T00:38:58.008Z,3.70
2017-12-15T00:41:25.468Z,2.87
2017-12-15T00:43:53.042Z,2.93
2017-12-15T00:46:20.528Z,3.40
2017-12-15T00:48:48.087Z,3.50
2017-12-15T00:51:15.525Z,3.70
2017-12-15T00:53:43.026Z,3.27
2017-12-15T00:56:10.502Z,3.73
2017-12-15T00:58:37.973Z,4.33
2017-12-15T01:01:05.498Z,3.63
2017-12-15T01:03:33.345Z,3.60
2017-12-15T01:06:00.915Z,2.90
2017-12-15T01:08:28.372Z,3.80
2017-12-15T01:10:55.827Z,3.47
2017-12-15T01:13:23.309Z,3.27
2017-12-15T01:15:50.768Z,3.60
2017-12-15T01:18:18.219Z,3.10
2017-12-15T01:20:45.739Z,2.83
2017-12-15T01:23:13.188Z,3.80
2017-12-15T01:25:40.650Z,3.43
2017-12-15T01:28:08.097Z,3.70
2017-12-15T01:30:35.563Z,4.30
2017-12-15T01:33:03.022Z,3.60
2017-12-15T01:35:30.494Z,2.97
2017-12-15T01:37:57.958Z,3.47
2017-12-15T01:40:25.422Z,3.13
2017-12-15T01:42:52.974Z,3.20
2017-12-15T01:45:20.593Z,3.80
2017-12-15T01:47:48.101Z,4.27
2017-12-15T01:50:15.586Z,4.07
2017-12-15T01:52:43.146Z,3.17
2017-12-15T01:55:10.590Z,3.07
2017-12-15T01:57:38.088Z,3.80
2017-12-15T02:00:05.571Z,4.03
2017-12-15T02:02:33.082Z,3.57
2017-12-15T02:05:00.538Z,3.90
2017-12-15T02:07:27.998Z,4.37
2017-12-15T02:09:55.453Z,2.80
2017-12-15T02:12:22.937Z,4.17
2017-12-15T02:14:50.483Z,2.90
2017-12-15T02:17:18.085Z,3.47
2017-12-15T02:19:45.521Z,3.43
2017-12-15T02:22:12.999Z,3.97
2017-12-15T02:24:40.582Z,3.87
2017-12-15T02:27:08.039Z,3.57
2017-12-15T02:29:35.531Z,4.57
2017-12-15T02:32:02.973Z,3.83
2017-12-15T02:34:30.462Z,4.40
2017-12-15T02:36:57.906Z,4.20
2017-12-15T02:39:25.370Z,3.83
2017-12-15T02:41:52.830Z,3.93
2017-12-15T02:44:20.346Z,5.43
2017-12-15T02:46:47.806Z,3.37
2017-12-15T02:49:15.253Z,3.97
2017-12-15T02:51:42.750Z,3.57
2017-12-15T02:54:10.322Z,4.07
2017-12-15T02:56:37.789Z,4.43
2017-12-15T02:59:05.373Z,4.60
2017-12-15T03:01:32.835Z,3.37
2017-12-15T03:04:00.296Z,4.77
2017-12-15T03:06:27.783Z,3.97
2017-12-15T03:08:55.245Z,4.50
2017-12-15T03:11:22.734Z,3.63
2017-12-15T03:13:50.209Z,4.10
2017-12-15T03:16:17.666Z,4.37
2017-12-15T03:18:45.236Z,4.00
2017-12-15T03:21:12.686Z,4.67
2017-12-15T03:23:40.145Z,3.80
2017-12-15T03:26:07.595Z,4.53
2017-12-15T03:28:35.060Z,4.00
2017-12-15T03:31:02.504Z,3.43
2017-12-15T03:33:30.051Z,2.97
2017-12-15T03:35:57.511Z,3.63
2017-12-15T03:38:24.981Z,4.63
2017-12-15T03:40:52.477Z,4.30
2017-12-15T03:43:21.752Z,3.33
2017-12-15T03:45:49.250Z,4.37
2017-12-15T03:48:16.706Z,4.00
2017-12-15T03:50:44.300Z,4.30
2017-12-15T03:53:11.745Z,4.60
2017-12-15T03:55:39.233Z,4.73
2017-12-15T03:58:06.746Z,4.53
2017-12-15T04:00:34.161Z,5.00
2017-12-15T04:03:01.641Z,4.27
2017-12-15T04:05:29.093Z,4.93
2017-12-15T04:07:56.579Z,4.47
2017-12-15T04:10:24.041Z,5.13
2017-12-15T04:12:51.501Z,5.87
2017-12-15T04:15:18.962Z,4.50
2017-12-15T04:17:46.465Z,6.23
2017-12-15T04:20:13.912Z,4.33
2017-12-15T04:22:41.459Z,4.97
2017-12-15T04:25:08.934Z,5.17
2017-12-15T04:27:36.454Z,5.30
2017-12-15T04:30:03.899Z,5.23
2017-12-15T04:32:31.397Z,5.00
2017-12-15T04:34:58.886Z,4.70
2017-12-15T04:37:26.348Z,4.40
2017-12-15T04:39:53.914Z,4.87
2017-12-15T04:42:22.203Z,5.03
2017-12-15T04:44:49.697Z,5.53
2017-12-15T04:47:17.230Z,5.10
2017-12-15T04:49:44.717Z,5.10
2017-12-15T04:52:12.173Z,4.83
2017-12-15T04:54:39.669Z,4.77
2017-12-15T04:57:07.175Z,4.10
2017-12-15T04:59:34.698Z,5.63
2017-12-15T05:02:02.149Z,5.90
2017-12-15T05:04:29.610Z,5.57
2017-12-15T05:06:57.071Z,5.77
2017-12-15T05:09:24.681Z,6.20
2017-12-15T05:11:52.149Z,5.03
2017-12-15T05:14:19.687Z,5.60
2017-12-15T05:16:47.237Z,5.23
2017-12-15T05:19:14.756Z,5.00
2017-12-15T05:21:42.214Z,5.60
2017-12-15T05:24:09.679Z,6.07
2017-12-15T05:26:37.132Z,6.63
2017-12-15T05:29:04.602Z,7.97
2017-12-15T05:31:32.132Z,6.77
2017-12-15T05:33:59.599Z,6.40
2017-12-15T05:36:27.082Z,6.43
2017-12-15T05:38:54.537Z,6.30
2017-12-15T05:41:22.017Z,5.93
2017-12-15T05:43:49.543Z,7.17
2017-12-15T05:46:17.092Z,6.63
2017-12-15T05:48:44.545Z,6.17
2017-12-15T05:51:12.077Z,6.57
2017-12-15T05:53:39.527Z,5.80
2017-12-15T05:56:06.989Z,6.93
2017-12-15T05:58:34.494Z,6.77
2017-12-15T06:01:01.936Z,6.50
2017-12-15T06:03:29.392Z,6.33
2017-12-15T06:05:56.862Z,7.17
2017-12-15T06:08:24.322Z,7.53
2017-12-15T06:10:51.814Z,8.83
2017-12-15T06:13:19.268Z,7.47
2017-12-15T06:15:46.723Z,8.97
2017-12-15T06:18:14.174Z,9.87
2017-12-15T06:20:41.642Z,9.17
2017-12-15T06:23:09.203Z,9.53
2017-12-15T06:25:36.774Z,9.13
2017-12-15T06:28:04.247Z,8.97
2017-12-15T06:30:31.709Z,9.50
2017-12-15T06:32:59.175Z,8.00
2017-12-15T06:35:26.637Z,8.27
2017-12-15T06:37:54.117Z,7.43
2017-12-15T06:40:21.582Z,8.67
2017-12-15T06:42:49.054Z,8.77
2017-12-15T06:45:16.506Z,9.77
2017-12-15T06:47:43.978Z,10.57
2017-12-15T06:50:11.528Z,10.57
2017-12-15T06:52:38.990Z,11.93
2017-12-15T06:55:06.516Z,12.63
2017-12-15T06:57:33.985Z,10.07
2017-12-15T07:00:01.442Z,9.97
2017-12-15T07:02:28.941Z,8.57
2017-12-15T07:04:56.419Z,8.57
2017-12-15T07:07:23.950Z,8.97
2017-12-15T07:09:51.421Z,9.83
2017-12-15T07:12:18.924Z,9.40
2017-12-15T07:14:46.406Z,9.20
2017-12-15T07:17:13.967Z,10.77
2017-12-15T07:19:41.445Z,9.93
2017-12-15T07:22:08.910Z,8.60
2017-12-15T07:24:37.174Z,10.57
2017-12-15T07:27:04.634Z,10.87
2017-12-15T07:29:32.085Z,9.90
2017-12-15T07:31:59.534Z,9.90
2017-12-15T07:34:27.011Z,9.23
2017-12-15T07:36:54.553Z,8.57
2017-12-15T07:39:22.026Z,9.43
2017-12-15T07:41:49.486Z,6.90
2017-12-15T07:44:16.937Z,7.60
2017-12-15T07:46:45.197Z,8.13
2017-12-15T07:49:12.643Z,9.00
2017-12-15T07:51:40.186Z,8.77
2017-12-15T07:54:07.661Z,8.33
2017-12-15T07:56:35.118Z,9.87
2017-12-15T07:59:02.584Z,8.93
2017-12-15T08:01:30.045Z,9.53
2017-12-15T08:03:57.539Z,8.43
2017-12-15T08:06:25.111Z,8.43
2017-12-15T08:08:52.581Z,7.83
2017-12-15T08:11:20.029Z,7.80
2017-12-15T08:13:47.548Z,7.53
2017-12-15T08:16:15.000Z,9.23
2017-12-15T08:18:42.568Z,10.43
2017-12-15T08:21:10.029Z,9.33
2017-12-15T08:23:37.507Z,10.03
2017-12-15T08:26:04.984Z,10.13
2017-12-15T08:28:32.445Z,10.47
2017-12-15T08:30:59.913Z,10.37
2017-12-15T08:33:27.380Z,10.13
2017-12-15T08:35:54.827Z,9.50
2017-12-15T08:38:22.302Z,10.00
2017-12-15T08:40:49.768Z,11.10
2017-12-15T08:43:17.229Z,11.03
2017-12-15T08:45:44.742Z,10.10
2017-12-15T08:48:12.206Z,13.40
2017-12-15T08:50:39.698Z,11.47
2017-12-15T08:53:07.164Z,12.47
2017-12-15T08:55:34.636Z,12.90
2017-12-15T08:58:02.297Z,11.50
2017-12-15T09:00:29.768Z,11.80
2017-12-15T09:02:57.221Z,13.20
2017-12-15T09:05:24.681Z,11.43
2017-12-15T09:07:52.146Z,12.73
2017-12-15T09:10:19.641Z,11.03
2017-12-15T09:12:47.086Z,11.33
2017-12-15T09:15:14.529Z,12.13
2017-12-15T09:17:41.986Z,11.10
2017-12-15T09:20:09.434Z,11.13
2017-12-15T09:22:36.903Z,10.33
2017-12-15T09:25:04.354Z,10.63
2017-12-15T09:27:31.842Z,11.00
2017-12-15T09:29:59.325Z,10.43
2017-12-15T09:32:26.800Z,9.07
2017-12-15T09:34:54.588Z,11.43
2017-12-15T09:37:22.348Z,10.60
2017-12-15T09:39:49.815Z,9.53
2017-12-15T09:42:17.266Z,8.07
2017-12-15T09:44:44.745Z,7.80
2017-12-15T09:47:12.239Z,6.67
2017-12-15T09:49:39.699Z,7.57
2017-12-15T09:52:07.143Z,6.67
2017-12-15T09:54:34.638Z,7.33
2017-12-15T09:57:02.114Z,6.57
2017-12-15T09:59:29.602Z,7.50
2017-12-15T10:01:57.047Z,5.83
2017-12-15T10:04:24.535Z,5.97
2017-12-15T10:06:52.053Z,6.77
2017-12-15T10:09:19.519Z,6.57
2017-12-15T10:11:47.104Z,5.93
2017-12-15T10:14:14.595Z,6.97
2017-12-15T10:16:42.174Z,7.90
2017-12-15T10:19:09.697Z,7.90
2017-12-15T10:21:37.145Z,8.10
2017-12-15T10:24:04.693Z,7.87
2017-12-15T10:26:32.221Z,8.07
2017-12-15T10:28:59.671Z,8.23
2017-12-15T10:31:27.204Z,8.20
2017-12-15T10:33:54.666Z,7.07
2017-12-15T10:36:22.112Z,7.80
2017-12-15T10:38:49.576Z,8.70
2017-12-15T10:41:17.027Z,7.23
2017-12-15T10:43:44.486Z,9.50
2017-12-15T10:46:12.029Z,8.77
2017-12-15T10:48:39.486Z,7.10
2017-12-15T10:51:06.961Z,8.37
2017-12-15T10:53:34.457Z,8.57
2017-12-15T10:56:02.023Z,7.30
2017-12-15T10:58:29.460Z,7.37
2017-12-15T11:00:57.011Z,6.63
2017-12-15T11:03:24.526Z,7.70
2017-12-15T11:05:52.029Z,8.17
2017-12-15T11:08:19.473Z,6.07
2017-12-15T11:10:46.926Z,6.50
2017-12-15T11:13:14.370Z,5.83
2017-12-15T11:15:41.901Z,6.47
2017-12-15T11:18:09.368Z,5.30
2017-12-15T11:20:36.813Z,5.63
2017-12-15T11:23:04.305Z,5.90
2017-12-15T11:25:31.749Z,6.07
2017-12-15T11:27:59.288Z,5.93
2017-12-15T11:30:30.765Z,6.53
2017-12-15T11:32:58.287Z,5.23
2017-12-15T11:35:25.727Z,6.20
2017-12-15T11:37:53.185Z,6.60
2017-12-15T11:40:20.643Z,5.93
2017-12-15T11:42:48.156Z,7.23
2017-12-15T11:45:15.621Z,6.53
2017-12-15T11:47:43.101Z,6.53
2017-12-15T11:50:10.554Z,7.23
2017-12-15T11:52:38.105Z,6.90
2017-12-15T11:55:05.608Z,5.77
2017-12-15T11:57:33.077Z,6.23
2017-12-15T12:00:00.568Z,5.40
2017-12-15T12:02:28.022Z,5.83
2017-12-15T12:04:55.487Z,5.63
2017-12-15T12:07:22.937Z,6.10
2017-12-15T12:09:50.542Z,5.13
2017-12-15T12:12:17.982Z,5.33
2017-12-15T12:14:45.469Z,5.23
2017-12-15T12:17:12.913Z,5.90
2017-12-15T12:19:40.368Z,4.67
2017-12-15T12:22:07.817Z,6.10
2017-12-15T12:24:35.365Z,6.10
2017-12-15T12:27:02.817Z,5.23
2017-12-15T12:29:30.308Z,5.60
2017-12-15T12:31:57.870Z,5.37
2017-12-15T12:34:25.332Z,6.07
2017-12-15T12:36:52.839Z,5.17
2017-12-15T12:39:20.291Z,4.53
2017-12-15T12:41:47.872Z,5.10
2017-12-15T12:44:15.326Z,4.30
2017-12-15T12:46:42.769Z,4.83
2017-12-15T12:49:10.264Z,4.70
2017-12-15T12:51:37.719Z,5.37
2017-12-15T12:54:05.177Z,5.17
2017-12-15T12:56:32.629Z,5.37
2017-12-15T12:59:00.200Z,5.50
2017-12-15T13:01:27.647Z,5.33
2017-12-15T13:03:55.093Z,5.20
2017-12-15T13:06:22.595Z,6.17
2017-12-15T13:08:50.073Z,5.33
2017-12-15T13:11:17.551Z,4.90
2017-12-15T13:13:44.991Z,5.97
2017-12-15T13:16:12.541Z,5.87
2017-12-15T13:18:40.022Z,5.50
2017-12-15T13:21:07.473Z,5.47
2017-12-15T13:23:34.923Z,5.83
2017-12-15T13:26:02.412Z,5.20
2017-12-15T13:28:29.853Z,6.10
2017-12-15T13:30:57.577Z,4.57
2017-12-15T13:33:25.022Z,5.50
2017-12-15T13:35:52.540Z,4.83
2017-12-15T13:38:20.098Z,5.33
2017-12-15T13:40:47.573Z,4.77
2017-12-15T13:43:15.135Z,5.00
2017-12-15T13:45:42.574Z,5.90
2017-12-15T13:48:10.085Z,5.03
2017-12-15T13:50:37.535Z,6.17
2017-12-15T13:53:05.015Z,4.43
2017-12-15T13:55:32.481Z,5.00
2017-12-15T13:57:59.959Z,5.37
2017-12-15T14:00:27.417Z,4.80
2017-12-15T14:02:54.908Z,5.37
2017-12-15T14:05:22.377Z,5.27
2017-12-15T14:07:49.967Z,4.10
2017-12-15T14:10:17.423Z,5.20
2017-12-15T14:12:44.880Z,5.50
2017-12-15T14:15:12.337Z,5.07
2017-12-15T14:17:39.805Z,4.53
2017-12-15T14:20:07.439Z,4.47
2017-12-15T14:22:34.881Z,5.33
2017-12-15T14:25:02.391Z,5.07
2017-12-15T14:27:29.841Z,6.13
2017-12-15T14:29:57.332Z,4.47
2017-12-15T14:32:24.859Z,5.57
2017-12-15T14:34:52.373Z,5.17
2017-12-15T14:37:19.829Z,4.77
2017-12-15T14:39:51.047Z,5.47
2017-12-15T14:42:18.508Z,6.17
2017-12-15T14:44:45.996Z,5.93
2017-12-15T14:47:13.476Z,6.20
2017-12-15T14:49:40.919Z,7.37
2017-12-15T14:52:08.428Z,7.63
2017-12-15T14:54:35.863Z,8.00
2017-12-15T14:57:03.314Z,7.30
2017-12-15T14:59:30.753Z,7.00
2017-12-15T15:01:58.226Z,5.97
2017-12-15T15:04:25.693Z,7.37
2017-12-15T15:06:53.154Z,6.83
2017-12-15T15:09:20.604Z,7.97
2017-12-15T15:11:48.166Z,7.83
2017-12-15T15:14:15.623Z,6.97
2017-12-15T15:16:43.110Z,8.23
2017-12-15T15:19:10.685Z,9.27
2017-12-15T15:21:38.170Z,9.10
2017-12-15T15:24:05.635Z,8.63
2017-12-15T15:26:33.081Z,8.20
2017-12-15T15:29:00.580Z,8.33
2017-12-15T15:31:28.141Z,10.10
2017-12-15T15:33:55.618Z,9.10
2017-12-15T15:36:23.112Z,9.53
2017-12-15T15:38:50.603Z,9.50
2017-12-15T15:41:18.062Z,10.53
2017-12-15T15:43:45.518Z,9.03
2017-12-15T15:46:13.064Z,9.47
2017-12-15T15:48:40.538Z,9.57
2017-12-15T15:51:08.012Z,8.73
2017-12-15T15:53:35.479Z,8.73
2017-12-15T15:56:02.943Z,9.30
2017-12-15T15:58:30.417Z,7.90
2017-12-15T16:00:57.886Z,7.87
2017-12-15T16:03:25.347Z,7.87
2017-12-15T16:05:52.847Z,7.90
2017-12-15T16:08:20.314Z,7.73
2017-12-15T16:10:47.788Z,8.93
2017-12-15T16:13:15.229Z,8.63
2017-12-15T16:15:42.839Z,10.00
2017-12-15T16:18:10.384Z,10.00
2017-12-15T16:20:37.878Z,11.37
2017-12-15T16:23:05.383Z,13.20
2017-12-15T16:25:32.854Z,12.23
2017-12-15T16:28:00.343Z,10.67
2017-12-15T16:30:27.844Z,9.40
2017-12-15T16:32:55.314Z,9.80
2017-12-15T16:35:22.781Z,10.20
2017-12-15T16:37:50.261Z,10.17
2017-12-15T16:40:17.831Z,10.17
2017-12-15T16:42:45.301Z,8.60
2017-12-15T16:45:12.757Z,8.20
2017-12-15T16:47:40.233Z,8.77
2017-12-15T16:50:07.744Z,10.47
2017-12-15T16:52:35.220Z,8.93
2017-12-15T16:55:02.761Z,9.93
2017-12-15T16:57:30.210Z,9.87
2017-12-15T16:59:57.680Z,11.17
2017-12-15T17:02:25.152Z,8.87
2017-12-15T17:04:52.634Z,9.43
2017-12-15T17:07:20.301Z,10.57
2017-12-15T17:09:47.780Z,11.27
2017-12-15T17:12:15.244Z,9.70
2017-12-15T17:14:42.763Z,13.47
2017-12-15T17:17:10.219Z,9.90
2017-12-15T17:19:37.691Z,10.33
2017-12-15T17:22:05.153Z,10.77
2017-12-15T17:24:32.606Z,10.20
2017-12-15T17:27:00.064Z,9.70
2017-12-15T17:29:27.566Z,10.53
2017-12-15T17:31:55.126Z,10.33
2017-12-15T17:34:22.620Z,11.67
2017-12-15T17:36:50.169Z,10.53
2017-12-15T17:39:17.634Z,12.07
2017-12-15T17:41:45.101Z,10.47
2017-12-15T17:44:12.630Z,11.30
2017-12-15T17:46:40.150Z,11.27
2017-12-15T17:49:07.622Z,12.33
2017-12-15T17:51:35.099Z,13.23
2017-12-15T17:54:02.592Z,10.97
2017-12-15T17:56:30.050Z,10.70
2017-12-15T17:58:57.618Z,11.13
2017-12-15T18:01:25.074Z,13.33
2017-12-15T18:03:52.570Z,11.17
2017-12-15T18:06:20.034Z,10.80
2017-12-15T18:08:47.602Z,11.73
2017-12-15T18:11:15.118Z,11.27
2017-12-15T18:13:42.590Z,11.43
2017-12-15T18:16:10.106Z,11.43
2017-12-15T18:18:37.575Z,10.43
2017-12-15T18:21:05.048Z,10.87
2017-12-15T18:23:32.511Z,9.33
2017-12-15T18:25:59.997Z,10.67
2017-12-15T18:28:27.512Z,9.93
2017-12-15T18:30:54.987Z,9.97
2017-12-15T18:33:22.514Z,9.77
2017-12-15T18:35:50.049Z,9.83
2017-12-15T18:38:17.554Z,12.43
2017-12-15T18:40:45.005Z,10.40
2017-12-15T18:43:12.513Z,10.57
2017-12-15T18:45:40.084Z,11.33
2017-12-15T18:48:07.563Z,10.93
2017-12-15T18:50:35.018Z,9.47
2017-12-15T18:53:02.624Z,10.33
2017-12-15T18:55:30.069Z,9.43
2017-12-15T18:57:57.765Z,8.90
2017-12-15T19:00:25.225Z,10.10
2017-12-15T19:02:52.767Z,10.10
2017-12-15T19:05:20.423Z,9.07
2017-12-15T19:07:47.909Z,9.03
2017-12-15T19:10:15.375Z,8.90
2017-12-15T19:12:42.846Z,8.83
2017-12-15T19:15:10.331Z,10.30
2017-12-15T19:17:37.913Z,9.53
2017-12-15T19:20:05.369Z,8.83
2017-12-15T19:22:32.832Z,8.50
2017-12-15T19:25:00.303Z,8.97
2017-12-15T19:27:27.751Z,9.73
2017-12-15T19:29:55.232Z,8.23
2017-12-15T19:32:22.735Z,6.93
2017-12-15T19:34:50.210Z,8.10
2017-12-15T19:37:17.686Z,6.77
2017-12-15T19:39:45.136Z,8.23
2017-12-15T19:42:12.712Z,6.73
2017-12-15T19:44:40.197Z,7.67
2017-12-15T19:47:07.671Z,7.63
2017-12-15T19:49:35.172Z,6.90
2017-12-15T19:52:02.645Z,7.10
2017-12-15T19:54:30.094Z,6.03
2017-12-15T19:56:57.577Z,8.03
2017-12-15T19:59:25.022Z,7.87
2017-12-15T20:01:52.465Z,7.33
2017-12-15T20:04:20.054Z,8.20
2017-12-15T20:06:47.563Z,8.63
2017-12-15T20:09:15.145Z,7.87
2017-12-15T20:11:42.583Z,7.33
2017-12-15T20:14:10.055Z,8.83
2017-12-15T20:16:37.598Z,8.60
2017-12-15T20:19:05.074Z,7.73
2017-12-15T20:21:32.551Z,7.87
2017-12-15T20:24:00.005Z,8.60
2017-12-15T20:26:27.469Z,8.43
2017-12-15T20:28:54.929Z,11.03
2017-12-15T20:31:22.378Z,8.07
2017-12-15T20:33:50.009Z,9.17
2017-12-15T20:36:17.534Z,8.90
2017-12-15T20:38:45.035Z,9.40
2017-12-15T20:41:12.569Z,9.00
2017-12-15T20:43:40.123Z,8.30
2017-12-15T20:46:07.653Z,8.87
2017-12-15T20:48:35.125Z,7.80
2017-12-15T20:51:02.661Z,7.20
2017-12-15T20:53:30.117Z,8.10
2017-12-15T20:55:57.703Z,7.87
2017-12-15T20:58:25.231Z,8.37
2017-12-15T21:00:52.792Z,8.57
2017-12-15T21:03:20.287Z,10.47
2017-12-15T21:05:47.746Z,9.70
2017-12-15T21:08:15.304Z,8.53
2017-12-15T21:10:42.757Z,8.07
2017-12-15T21:13:10.244Z,8.17
2017-12-15T21:15:37.776Z,7.43
2017-12-15T21:18:05.326Z,7.80
2017-12-15T21:20:32.861Z,8.70
2017-12-15T21:23:00.395Z,7.57
2017-12-15T21:25:27.846Z,8.83
2017-12-15T21:27:55.303Z,8.70
2017-12-15T21:30:22.804Z,7.87
2017-12-15T21:32:50.386Z,7.60
2017-12-15T21:35:17.948Z,8.10
2017-12-15T21:37:45.470Z,7.83
2017-12-15T21:40:12.993Z,7.77
2017-12-15T21:42:40.477Z,7.67
2017-12-15T21:45:08.206Z,8.07
2017-12-15T21:47:36.428Z,9.10
2017-12-15T21:50:03.936Z,8.97
2017-12-15T21:52:31.552Z,9.13
2017-12-15T21:54:59.145Z,8.77
2017-12-15T21:57:26.607Z,7.03
2017-12-15T21:59:54.045Z,7.83
2017-12-15T22:02:21.605Z,7.97
2017-12-15T22:04:49.082Z,7.73
2017-12-15T22:07:16.611Z,8.40
2017-12-15T22:09:44.126Z,8.30
2017-12-15T22:12:29.562Z,8.80
2017-12-15T22:14:58.011Z,6.97
2017-12-15T22:17:25.508Z,7.90
2017-12-15T22:19:53.113Z,7.63
2017-12-15T22:22:20.677Z,7.87
2017-12-15T22:24:48.258Z,8.37
2017-12-15T22:27:15.807Z,8.20
2017-12-15T22:29:43.258Z,8.47
2017-12-15T22:32:10.732Z,8.30
2017-12-15T22:34:38.335Z,7.00
2017-12-15T22:37:05.839Z,9.70
2017-12-15T22:39:33.307Z,8.47
2017-12-15T22:42:00.809Z,7.83
2017-12-15T22:44:28.317Z,7.80
2017-12-15T22:46:55.888Z,8.00
2017-12-15T22:49:23.417Z,9.37
2017-12-15T22:51:50.869Z,8.33
2017-12-15T22:54:18.383Z,8.20
2017-12-15T22:56:45.936Z,8.27
2017-12-15T22:59:13.457Z,8.97
2017-12-15T23:01:40.928Z,9.83
2017-12-15T23:04:08.449Z,8.13
2017-12-15T23:06:35.940Z,8.70
2017-12-15T23:09:03.452Z,8.90
2017-12-15T23:11:30.913Z,9.20
2017-12-15T23:13:58.414Z,10.40
2017-12-15T23:16:25.898Z,9.07
2017-12-15T23:18:53.366Z,10.10
2017-12-15T23:21:20.824Z,7.90
2017-12-15T23:23:48.359Z,9.17
2017-12-15T23:26:15.945Z,9.70
2017-12-15T23:28:43.425Z,9.20
2017-12-15T23:31:10.928Z,9.83
2017-12-15T23:33:38.391Z,11.20
2017-12-15T23:36:05.897Z,10.00
2017-12-15T23:38:33.501Z,12.70
2017-12-15T23:41:01.000Z,12.77
2017-12-15T23:43:28.469Z,12.00
2017-12-15T23:45:55.963Z,12.10
2017-12-15T23:48:23.585Z,11.87
2017-12-15T23:50:51.088Z,11.27
2017-12-15T23:53:18.632Z,11.37
2017-12-15T23:55:58.018Z,11.67
2017-12-15T23:58:25.558Z,12.00
